Time;durP1;ratioP1;P1;durP2;ratioP2;P2;SDS_P1;SDS_P2;PMS_P1;PMS_P2;Temp;Humidity;BMP_temperature;BMP_pressure;BME280_temperature;BME280_humidity;BME280_pressure;Samples;Min_cycle;Max_cycle;Signal;HPM_P1;HPM_P2
2021/01/29 00:00:12;;;;;;;73.82;23.90;;;;;;;;;;4393420;32;20182;-78
2021/01/29 00:02:37;;;;;;;103.40;26.45;;;;;;;;;;4393799;32;20204;-78
2021/01/29 00:05:03;;;;;;;79.50;24.10;;;;;;;;;;4407395;32;20452;-78
2021/01/29 00:07:28;;;;;;;127.82;27.35;;;;;;;;;;4407287;32;20563;-78
2021/01/29 00:09:57;;;;;;;92.25;26.15;;;;;;;;;;4393769;32;20170;-78
2021/01/29 00:12:24;;;;;;;123.40;30.33;;;;;;;;;;4393495;32;20165;-78
2021/01/29 00:14:52;;;;;;;115.00;27.85;;;;;;;;;;4379719;32;20229;-78
2021/01/29 00:17:18;;;;;;;133.20;27.58;;;;;;;;;;4378197;32;20185;-78
2021/01/29 00:19:43;;;;;;;77.05;25.98;;;;;;;;;;4378511;32;20159;-78
2021/01/29 00:22:11;;;;;;;141.73;31.33;;;;;;;;;;4378352;32;20209;-78
2021/01/29 00:24:36;;;;;;;89.37;27.10;;;;;;;;;;4392347;32;20215;-78
2021/01/29 00:27:02;;;;;;;124.87;28.17;;;;;;;;;;4406818;32;20166;-78
2021/01/29 00:29:27;;;;;;;128.70;29.67;;;;;;;;;;4393012;32;20223;-78
2021/01/29 00:31:52;;;;;;;149.95;29.77;;;;;;;;;;4406884;32;20180;-78
2021/01/29 00:34:17;;;;;;;103.22;29.45;;;;;;;;;;4407309;32;20264;-78
2021/01/29 00:36:43;;;;;;;98.47;28.30;;;;;;;;;;4406959;32;20138;-78
2021/01/29 00:39:08;;;;;;;114.80;31.57;;;;;;;;;;4392905;32;20219;-78
2021/01/29 00:41:35;;;;;;;137.40;32.30;;;;;;;;;;4393315;32;20158;-78
2021/01/29 00:44:01;;;;;;;98.28;29.33;;;;;;;;;;4406634;32;20146;-78
2021/01/29 00:46:27;;;;;;;128.45;30.48;;;;;;;;;;4392790;32;20162;-78
2021/01/29 00:48:52;;;;;;;101.60;29.37;;;;;;;;;;4393547;32;20177;-78
2021/01/29 00:51:33;;;;;;;130.23;31.48;;;;;;;;;;4392988;32;20215;-78
2021/01/29 00:53:58;;;;;;;127.70;32.33;;;;;;;;;;4392890;32;20214;-78
2021/01/29 00:56:24;;;;;;;128.10;31.48;;;;;;;;;;4392779;32;20154;-78
2021/01/29 00:58:58;;;;;;;100.50;28.77;;;;;;;;;;4393118;32;20161;-78
2021/01/29 01:01:23;;;;;;;109.68;31.27;;;;;;;;;;4392724;32;20157;-78
2021/01/29 01:03:49;;;;;;;104.25;31.92;;;;;;;;;;4392580;32;20265;-78
2021/01/29 01:06:14;;;;;;;161.55;35.00;;;;;;;;;;4392972;32;20205;-78
2021/01/29 01:08:40;;;;;;;136.65;34.13;;;;;;;;;;4406682;32;20179;-78
2021/01/29 01:11:05;;;;;;;133.25;35.40;;;;;;;;;;4406845;32;20172;-78
2021/01/29 01:13:30;;;;;;;96.57;33.17;;;;;;;;;;4392700;32;20598;-79
2021/01/29 01:15:56;;;;;;;146.85;35.92;;;;;;;;;;4392395;32;20478;-78
2021/01/29 01:18:21;;;;;;;142.63;37.67;;;;;;;;;;4406346;32;20134;-79
2021/01/29 01:20:51;;;;;;;116.68;33.13;;;;;;;;;;4406457;32;20145;-80
2021/01/29 01:23:17;;;;;;;108.93;34.00;;;;;;;;;;4392582;32;20158;-81
2021/01/29 01:25:42;;;;;;;157.12;38.70;;;;;;;;;;4392658;32;20162;-80
2021/01/29 01:28:07;;;;;;;137.70;36.00;;;;;;;;;;4392564;32;20531;-81
2021/01/29 01:30:34;;;;;;;162.05;39.53;;;;;;;;;;4392597;32;20489;-79
2021/01/29 01:33:15;;;;;;;117.50;34.55;;;;;;;;;;4392029;32;20725;-80
2021/01/29 01:36:01;;;;;;;140.12;38.10;;;;;;;;;;4391726;32;20165;-80
2021/01/29 01:38:33;;;;;;;142.25;39.05;;;;;;;;;;4373742;32;20501;-80
2021/01/29 01:40:59;;;;;;;149.02;37.83;;;;;;;;;;4392973;32;20224;-80
2021/01/29 01:43:24;;;;;;;115.62;35.47;;;;;;;;;;4406321;32;20487;-80
2021/01/29 01:45:56;;;;;;;117.32;36.70;;;;;;;;;;4392018;32;20228;-80
2021/01/29 01:48:33;;;;;;;114.03;35.08;;;;;;;;;;4406273;32;20146;-79
2021/01/29 01:50:58;;;;;;;121.37;38.10;;;;;;;;;;4406243;32;20164;-80
2021/01/29 01:53:30;;;;;;;95.30;35.05;;;;;;;;;;4405967;32;20192;-79
2021/01/29 01:56:13;;;;;;;130.27;36.58;;;;;;;;;;4405565;32;20196;-80
2021/01/29 01:58:41;;;;;;;123.95;37.22;;;;;;;;;;4406259;32;20228;-80
2021/01/29 02:01:06;;;;;;;125.35;36.80;;;;;;;;;;4391721;32;20219;-80
2021/01/29 02:03:36;;;;;;;141.93;38.40;;;;;;;;;;4405952;32;20137;-80
2021/01/29 02:06:08;;;;;;;148.20;38.03;;;;;;;;;;4405758;32;20168;-79
2021/01/29 02:08:46;;;;;;;;;;;;;;;;;;;;;
2021/01/29 02:11:14;;;;;;;128.57;37.45;;;;;;;;;;4390500;32;20166;-79
2021/01/29 02:13:39;;;;;;;97.93;34.40;;;;;;;;;;4405494;32;20169;-80
2021/01/29 02:16:33;;;;;;;108.93;34.47;;;;;;;;;;4391760;32;20230;-80
2021/01/29 02:19:19;;;;;;;111.22;34.38;;;;;;;;;;4404562;32;20530;-79
2021/01/29 02:21:48;;;;;;;145.07;39.15;;;;;;;;;;4405942;32;20167;-80
2021/01/29 02:24:25;;;;;;;107.18;35.35;;;;;;;;;;4405768;32;20146;-80
2021/01/29 02:27:09;;;;;;;144.77;39.47;;;;;;;;;;4393681;32;20170;-79
2021/01/29 02:29:53;;;;;;;126.68;39.05;;;;;;;;;;4390532;32;20200;-81
2021/01/29 02:32:18;;;;;;;143.75;40.35;;;;;;;;;;4389976;32;20181;-81
2021/01/29 02:34:53;;;;;;;125.85;37.85;;;;;;;;;;4390071;32;20134;-81
2021/01/29 02:37:55;;;;;;;114.03;37.47;;;;;;;;;;4399453;32;20150;-81
2021/01/29 02:40:29;;;;;;;114.30;37.38;;;;;;;;;;4406429;32;20193;-81
2021/01/29 02:45:54;;;;;;;111.72;37.90;;;;;;;;;;4405489;32;20161;-80
2021/01/29 02:48:29;;;;;;;132.48;39.45;;;;;;;;;;4391046;32;20169;-81
2021/01/29 02:51:22;;;;;;;111.78;36.58;;;;;;;;;;4406021;32;20181;-81
2021/01/29 02:53:47;;;;;;;127.93;38.10;;;;;;;;;;4405550;32;20220;-81
2021/01/29 02:56:35;;;;;;;105.65;36.47;;;;;;;;;;4405776;32;20461;-82
2021/01/29 02:59:19;;;;;;;92.40;33.35;;;;;;;;;;4405717;32;20154;-82
2021/01/29 03:02:07;;;;;;;133.63;37.83;;;;;;;;;;4405248;32;20142;-82
2021/01/29 03:04:34;;;;;;;120.32;34.80;;;;;;;;;;4393772;32;20173;-82
2021/01/29 03:07:07;;;;;;;74.82;32.67;;;;;;;;;;4404832;32;20154;-83
2021/01/29 03:09:33;;;;;;;82.18;32.33;;;;;;;;;;4391331;32;20197;-84
2021/01/29 03:12:27;;;;;;;87.40;34.40;;;;;;;;;;4391239;32;20256;-83
2021/01/29 03:14:56;;;;;;;74.87;31.37;;;;;;;;;;4388837;32;20228;-83
2021/01/29 03:17:57;;;;;;;117.30;36.10;;;;;;;;;;4404825;32;20146;-82
2021/01/29 03:20:51;;;;;;;114.60;35.95;;;;;;;;;;4378017;32;20170;-83
2021/01/29 03:23:47;;;;;;;72.63;29.83;;;;;;;;;;4388324;32;20229;-83
2021/01/29 03:26:49;;;;;;;63.03;26.77;;;;;;;;;;4381896;32;20177;-84
2021/01/29 03:29:30;;;;;;;61.53;26.12;;;;;;;;;;4343806;33;20553;-83
2021/01/29 03:32:19;;;;;;;64.50;26.67;;;;;;;;;;4401716;32;20204;-82
2021/01/29 03:34:48;;;;;;;66.68;25.95;;;;;;;;;;4404968;32;20161;-83
2021/01/29 03:37:26;;;;;;;80.83;28.43;;;;;;;;;;4390864;32;20184;-83
2021/01/29 03:39:52;;;;;;;67.15;27.25;;;;;;;;;;4405203;32;20145;-83
2021/01/29 03:42:28;;;;;;;59.22;25.73;;;;;;;;;;4404622;32;20219;-84
2021/01/29 03:45:01;;;;;;;70.90;24.87;;;;;;;;;;4391263;32;20165;-84
2021/01/29 03:47:53;;;;;;;58.25;25.12;;;;;;;;;;4405770;32;20150;-83
2021/01/29 03:50:46;;;;;;;65.00;23.08;;;;;;;;;;4388802;32;20233;-84
2021/01/29 03:53:41;;;;;;;;;;;;;;;;;;;;;
2021/01/29 03:56:25;;;;;;;45.83;19.23;;;;;;;;;;4328733;33;20163;-84
2021/01/29 03:59:17;;;;;;;46.05;19.73;;;;;;;;;;4329811;33;20205;-83
2021/01/29 04:01:47;;;;;;;37.15;17.05;;;;;;;;;;4393876;32;20598;-83
2021/01/29 04:04:23;;;;;;;32.67;16.02;;;;;;;;;;4397643;32;20161;-83
2021/01/29 04:07:27;;;;;;;31.23;14.85;;;;;;;;;;4410828;32;20165;-83
2021/01/29 04:09:56;;;;;;;22.95;12.63;;;;;;;;;;4395555;32;20170;-83
2021/01/29 04:12:44;;;;;;;27.62;12.98;;;;;;;;;;4387036;32;20154;-83
2021/01/29 04:15:21;;;;;;;26.70;12.98;;;;;;;;;;4317333;33;20467;-83
2021/01/29 04:21:13;;;;;;;19.60;10.80;;;;;;;;;;4316993;33;20193;-84
2021/01/29 04:23:45;;;;;;;18.05;10.38;;;;;;;;;;4303780;33;20163;-84
2021/01/29 04:26:17;;;;;;;20.77;11.32;;;;;;;;;;4371254;32;20201;-84
2021/01/29 04:32:04;;;;;;;14.25;9.95;;;;;;;;;;4346443;33;20210;-85
2021/01/29 04:35:11;;;;;;;11.75;6.78;;;;;;;;;;4394254;32;20251;-86
2021/01/29 04:56:33;;;;;;;5.47;2.20;;;;;;;;;;4346373;33;20158;-85
2021/01/29 04:59:36;;;;;;;6.28;1.40;;;;;;;;;;4333436;33;20186;-85
2021/01/29 05:02:37;;;;;;;5.50;1.62;;;;;;;;;;4391214;32;20158;-86
2021/01/29 05:05:30;;;;;;;3.40;1.55;;;;;;;;;;4333235;33;20213;-85
2021/01/29 05:08:14;;;;;;;5.53;1.45;;;;;;;;;;4377259;32;20173;-85
2021/01/29 05:10:49;;;;;;;7.07;1.62;;;;;;;;;;4392306;32;20219;-84
2021/01/29 05:13:52;;;;;;;9.68;2.00;;;;;;;;;;4378580;32;20177;-85
2021/01/29 05:16:21;;;;;;;6.53;2.00;;;;;;;;;;4378645;32;20158;-85
2021/01/29 05:19:05;;;;;;;8.93;1.80;;;;;;;;;;4379197;32;20158;-85
2021/01/29 05:21:57;;;;;;;6.97;2.03;;;;;;;;;;4379436;32;20636;-86
2021/01/29 05:24:28;;;;;;;7.35;2.22;;;;;;;;;;4378803;32;20155;-85
2021/01/29 05:27:20;;;;;;;8.65;2.42;;;;;;;;;;4377577;32;20174;-84
2021/01/29 05:29:56;;;;;;;8.07;2.17;;;;;;;;;;4376815;32;20193;-83
2021/01/29 05:32:30;;;;;;;8.38;2.28;;;;;;;;;;4378100;32;20157;-83
2021/01/29 05:35:14;;;;;;;7.05;2.17;;;;;;;;;;4378457;32;20157;-86
2021/01/29 05:37:57;;;;;;;10.23;2.03;;;;;;;;;;4377902;32;20571;-85
2021/01/29 05:40:25;;;;;;;11.07;2.20;;;;;;;;;;4377873;32;20210;-82
2021/01/29 05:43:10;;;;;;;10.25;2.25;;;;;;;;;;4377833;32;20588;-83
2021/01/29 05:45:43;;;;;;;6.93;1.83;;;;;;;;;;4377481;32;20158;-84
2021/01/29 05:48:27;;;;;;;11.97;2.37;;;;;;;;;;4378426;32;20626;-86
2021/01/29 05:51:32;;;;;;;;;;;;;;;;;;;;;
2021/01/29 05:54:21;;;;;;;13.52;2.62;;;;;;;;;;4344983;33;20453;-85
2021/01/29 05:56:49;;;;;;;11.32;2.40;;;;;;;;;;4377341;32;20158;-84
2021/01/29 05:59:33;;;;;;;10.63;2.33;;;;;;;;;;4377335;32;20245;-86
2021/01/29 06:02:21;;;;;;;16.20;2.70;;;;;;;;;;4378371;32;20181;-85
2021/01/29 06:05:05;;;;;;;17.40;2.95;;;;;;;;;;4378099;32;20565;-84
2021/01/29 06:08:09;;;;;;;;;;;;;;;;;;;;;
2021/01/29 06:11:03;;;;;;;;;;;;;;;;;;;;;
2021/01/29 06:16:50;;;;;;;10.45;2.78;;;;;;;;;;4353129;32;20185;-83
2021/01/29 06:19:34;;;;;;;14.80;2.28;;;;;;;;;;4377730;32;20579;-86
2021/01/29 06:22:08;;;;;;;12.60;1.98;;;;;;;;;;4376504;32;20194;-85
2021/01/29 06:24:52;;;;;;;8.20;2.47;;;;;;;;;;4376828;32;20256;-84
2021/01/29 06:27:37;;;;;;;12.80;2.15;;;;;;;;;;4376257;32;20521;-84
2021/01/29 06:30:21;;;;;;;7.43;2.12;;;;;;;;;;4377325;32;20219;-84
2021/01/29 06:33:19;;;;;;;11.82;2.28;;;;;;;;;;4376962;32;20265;-85
2021/01/29 06:35:53;;;;;;;10.97;2.97;;;;;;;;;;4357694;32;20238;-85
2021/01/29 06:38:24;;;;;;;10.77;3.17;;;;;;;;;;4377320;32;20150;-85
2021/01/29 06:41:08;;;;;;;11.93;3.17;;;;;;;;;;4377222;32;20213;-85
2021/01/29 06:44:09;;;;;;;16.12;3.08;;;;;;;;;;4377094;32;20169;-85
2021/01/29 06:46:37;;;;;;;18.30;3.25;;;;;;;;;;4317870;33;20182;-83
2021/01/29 06:49:26;;;;;;;10.40;2.85;;;;;;;;;;4365036;32;20162;-81
2021/01/29 06:52:11;;;;;;;18.25;2.95;;;;;;;;;;4384787;32;20146;-83
2021/01/29 06:54:46;;;;;;;19.62;3.10;;;;;;;;;;4391415;32;20169;-84
2021/01/29 06:57:21;;;;;;;17.98;3.60;;;;;;;;;;4377189;32;20172;-85
2021/01/29 07:00:08;;;;;;;13.15;2.70;;;;;;;;;;4373779;32;20176;-85
2021/01/29 07:02:51;;;;;;;10.68;2.40;;;;;;;;;;4376646;32;20162;-83
2021/01/29 07:05:35;;;;;;;18.37;3.30;;;;;;;;;;4377107;32;20204;-84
2021/01/29 07:08:15;;;;;;;12.27;2.78;;;;;;;;;;4376661;32;20184;-84
2021/01/29 07:11:10;;;;;;;18.73;3.00;;;;;;;;;;4381001;32;20247;-84
2021/01/29 07:13:59;;;;;;;12.90;3.10;;;;;;;;;;4384950;32;20146;-83
2021/01/29 07:16:30;;;;;;;17.92;3.15;;;;;;;;;;4393813;32;20158;-82
2021/01/29 07:19:13;;;;;;;21.70;3.75;;;;;;;;;;4421153;32;20141;-85
2021/01/29 07:21:44;;;;;;;20.73;3.67;;;;;;;;;;4399086;32;20501;-85
2021/01/29 07:24:15;;;;;;;24.70;4.10;;;;;;;;;;4406101;32;20262;-85
2021/01/29 07:27:02;;;;;;;28.73;5.00;;;;;;;;;;4405597;32;20687;-83
2021/01/29 07:29:28;;;;;;;23.70;4.68;;;;;;;;;;4402026;32;20170;-84
2021/01/29 07:32:12;;;;;;;24.20;3.80;;;;;;;;;;4391384;32;20245;-82
2021/01/29 07:34:42;;;;;;;27.77;3.60;;;;;;;;;;4393176;32;20181;-83
2021/01/29 07:37:26;;;;;;;23.27;4.07;;;;;;;;;;4395580;32;20236;-84
2021/01/29 07:40:04;;;;;;;21.70;3.37;;;;;;;;;;4394297;32;20161;-84
2021/01/29 07:42:48;;;;;;;32.55;4.37;;;;;;;;;;4407626;32;20184;-85
2021/01/29 07:45:32;;;;;;;23.98;3.62;;;;;;;;;;4394044;32;20162;-85
2021/01/29 07:48:10;;;;;;;32.03;4.22;;;;;;;;;;4393490;32;20150;-86
2021/01/29 07:50:38;;;;;;;25.73;4.90;;;;;;;;;;4393374;32;20165;-86
2021/01/29 07:53:22;;;;;;;24.80;4.55;;;;;;;;;;4407682;32;20161;-86
2021/01/29 07:55:58;;;;;;;33.45;5.93;;;;;;;;;;4393471;32;20200;-85
2021/01/29 07:58:29;;;;;;;26.95;3.90;;;;;;;;;;4394135;32;20518;-85
2021/01/29 08:01:13;;;;;;;33.15;4.85;;;;;;;;;;4411266;32;20141;-85
2021/01/29 08:04:04;;;;;;;22.98;4.25;;;;;;;;;;4402950;32;20183;-86
2021/01/29 08:06:41;;;;;;;33.97;5.07;;;;;;;;;;4422975;32;20177;-83
2021/01/29 08:12:21;;;;;;;26.98;4.55;;;;;;;;;;4345475;33;20150;-84
2021/01/29 08:14:56;;;;;;;32.42;4.82;;;;;;;;;;4389555;32;20157;-85
2021/01/29 08:17:30;;;;;;;34.17;4.50;;;;;;;;;;4409648;32;20146;-83
2021/01/29 08:20:16;;;;;;;29.63;5.15;;;;;;;;;;4422890;32;20127;-85
2021/01/29 08:23:00;;;;;;;33.45;5.12;;;;;;;;;;4408211;32;20150;-84
2021/01/29 08:29:05;;;;;;;31.12;5.43;;;;;;;;;;4351047;32;20268;-88
2021/01/29 08:38:03;;;;;;;43.10;5.12;;;;;;;;;;4340689;32;20176;-87
2021/01/29 08:40:52;;;;;;;34.72;4.57;;;;;;;;;;4378332;32;20178;-85
2021/01/29 08:43:43;;;;;;;29.12;5.28;;;;;;;;;;4379071;32;20486;-83
2021/01/29 08:46:29;;;;;;;31.60;4.43;;;;;;;;;;4422307;32;20171;-86
2021/01/29 08:49:07;;;;;;;35.15;5.07;;;;;;;;;;4422395;32;20141;-83
2021/01/29 08:51:52;;;;;;;24.55;4.15;;;;;;;;;;4407804;32;20207;-85
2021/01/29 08:54:18;;;;;;;27.50;4.40;;;;;;;;;;4421867;32;20486;-82
2021/01/29 08:57:10;;;;;;;29.12;4.72;;;;;;;;;;4421803;32;20145;-82
2021/01/29 08:59:38;;;;;;;38.20;5.07;;;;;;;;;;4421316;32;20199;-83
2021/01/29 09:02:18;;;;;;;31.40;5.68;;;;;;;;;;4401262;32;20748;-83
2021/01/29 09:04:59;;;;;;;34.47;5.20;;;;;;;;;;4407482;32;20595;-82
2021/01/29 09:07:46;;;;;;;32.55;4.85;;;;;;;;;;4407192;32;20157;-82
2021/01/29 09:10:24;;;;;;;35.58;5.78;;;;;;;;;;4407867;32;20273;-83
2021/01/29 09:13:02;;;;;;;35.17;5.32;;;;;;;;;;4407581;32;20661;-83
2021/01/29 09:15:49;;;;;;;31.33;5.03;;;;;;;;;;4407070;32;20608;-81
2021/01/29 09:18:18;;;;;;;33.35;5.28;;;;;;;;;;4407737;32;20587;-81
2021/01/29 09:21:01;;;;;;;31.27;4.50;;;;;;;;;;4420989;32;20125;-82
2021/01/29 09:23:35;;;;;;;37.28;5.65;;;;;;;;;;4394999;32;20509;-82
2021/01/29 09:26:11;;;;;;;28.75;5.85;;;;;;;;;;4421486;32;20122;-80
2021/01/29 09:28:41;;;;;;;32.35;4.47;;;;;;;;;;4406559;32;20245;-80
2021/01/29 09:31:22;;;;;;;;;;;;;;;;;;;;;
2021/01/29 09:34:23;;;;;;;;;;;;;;;;;;;;;
2021/01/29 09:36:51;;;;;;;32.70;4.35;;;;;;;;;;4405700;32;20212;-80
2021/01/29 09:39:22;;;;;;;37.60;5.25;;;;;;;;;;4405476;32;20138;-80
2021/01/29 09:42:14;;;;;;;35.85;4.80;;;;;;;;;;4406127;32;20187;-79
2021/01/29 09:44:48;;;;;;;40.12;4.82;;;;;;;;;;4391963;32;20220;-80
2021/01/29 09:47:23;;;;;;;34.40;4.95;;;;;;;;;;4391297;32;20230;-80
2021/01/29 09:50:02;;;;;;;34.45;4.50;;;;;;;;;;4390849;32;20158;-79
2021/01/29 09:52:27;;;;;;;32.80;4.35;;;;;;;;;;4392029;32;20157;-80
2021/01/29 09:55:09;;;;;;;28.15;4.25;;;;;;;;;;4405932;32;20169;-79
2021/01/29 09:58:13;;;;;;;30.00;4.05;;;;;;;;;;4391760;32;20195;-79
2021/01/29 10:00:43;;;;;;;24.75;4.28;;;;;;;;;;4391618;32;20165;-79
2021/01/29 10:03:27;;;;;;;29.98;4.15;;;;;;;;;;4391358;32;20642;-79
2021/01/29 10:06:30;;;;;;;30.17;4.30;;;;;;;;;;4393463;32;20192;-80
2021/01/29 10:09:03;;;;;;;25.17;4.90;;;;;;;;;;4367660;32;20165;-81
2021/01/29 10:11:45;;;;;;;24.87;4.20;;;;;;;;;;4421766;32;20134;-80
2021/01/29 10:14:29;;;;;;;27.25;3.87;;;;;;;;;;4408795;32;20203;-80
2021/01/29 10:17:04;;;;;;;31.52;4.43;;;;;;;;;;4406212;32;20173;-80
2021/01/29 10:19:35;;;;;;;29.37;4.25;;;;;;;;;;4405965;32;20177;-79
2021/01/29 10:22:12;;;;;;;24.75;4.37;;;;;;;;;;4391881;32;20178;-78
2021/01/29 10:24:56;;;;;;;33.88;4.30;;;;;;;;;;4405608;32;20539;-79
2021/01/29 10:27:42;;;;;;;29.75;5.07;;;;;;;;;;4390834;32;20196;-80
2021/01/29 10:30:12;;;;;;;29.20;3.67;;;;;;;;;;4393180;32;20177;-80
2021/01/29 10:32:38;;;;;;;24.10;4.25;;;;;;;;;;4420471;32;20279;-79
2021/01/29 10:35:21;;;;;;;25.33;3.80;;;;;;;;;;4406040;32;20169;-79
2021/01/29 10:38:28;;;;;;;23.77;3.50;;;;;;;;;;4407017;32;20153;-79
2021/01/29 10:41:11;;;;;;;21.15;3.65;;;;;;;;;;4413640;32;20615;-78
2021/01/29 10:43:44;;;;;;;26.17;3.62;;;;;;;;;;4392789;32;20664;-79
2021/01/29 10:46:18;;;;;;;20.42;3.22;;;;;;;;;;4404496;32;20209;-79
2021/01/29 10:48:56;;;;;;;18.15;3.12;;;;;;;;;;4390816;32;20591;-79
2021/01/29 10:51:30;;;;;;;23.58;4.18;;;;;;;;;;4391575;32;20167;-79
2021/01/29 10:54:00;;;;;;;22.80;3.58;;;;;;;;;;4390903;32;20166;-79
2021/01/29 10:56:28;;;;;;;32.90;4.30;;;;;;;;;;4390724;32;20162;-79
2021/01/29 10:59:11;;;;;;;26.25;3.78;;;;;;;;;;4405098;32;20156;-81
2021/01/29 11:01:39;;;;;;;21.35;3.53;;;;;;;;;;4390543;32;20166;-78
2021/01/29 11:04:23;;;;;;;25.55;3.35;;;;;;;;;;4390873;32;20157;-80
2021/01/29 11:06:54;;;;;;;16.92;3.42;;;;;;;;;;4404539;32;20191;-80
2021/01/29 11:09:30;;;;;;;27.08;3.67;;;;;;;;;;4392849;32;20270;-80
2021/01/29 11:12:03;;;;;;;26.50;3.90;;;;;;;;;;4407987;32;20169;-79
2021/01/29 11:14:43;;;;;;;30.02;4.22;;;;;;;;;;4414707;32;20276;-80
2021/01/29 11:17:39;;;;;;;22.33;3.78;;;;;;;;;;4397710;32;20645;-79
2021/01/29 11:20:34;;;;;;;13.80;3.03;;;;;;;;;;4341653;32;20168;-79
2021/01/29 11:23:03;;;;;;;17.45;3.40;;;;;;;;;;4382720;32;20553;-78
2021/01/29 11:25:49;;;;;;;24.83;4.07;;;;;;;;;;4422699;32;20522;-79
2021/01/29 11:28:29;;;;;;;22.33;3.33;;;;;;;;;;4404502;32;20692;-81
2021/01/29 11:31:33;;;;;;;16.25;3.17;;;;;;;;;;4394735;32;20229;-79
2021/01/29 11:34:02;;;;;;;25.20;3.35;;;;;;;;;;4391742;32;20176;-80
2021/01/29 11:36:33;;;;;;;24.35;3.62;;;;;;;;;;4407221;32;20192;-80
2021/01/29 11:39:17;;;;;;;21.87;4.22;;;;;;;;;;4408462;32;20161;-80
2021/01/29 11:42:02;;;;;;;;;;;;;;;;;;;;;
2021/01/29 11:44:55;;;;;;;24.17;3.17;;;;;;;;;;4407351;32;20134;-80
2021/01/29 11:47:29;;;;;;;20.35;2.85;;;;;;;;;;4407473;32;20424;-81
2021/01/29 11:50:07;;;;;;;19.62;3.45;;;;;;;;;;4407412;32;20138;-80
2021/01/29 11:52:35;;;;;;;21.87;3.70;;;;;;;;;;4378138;32;20201;-80
2021/01/29 11:55:20;;;;;;;21.52;3.40;;;;;;;;;;4391672;32;20127;-80
2021/01/29 11:57:57;;;;;;;26.73;3.67;;;;;;;;;;4377822;32;20482;-80
2021/01/29 12:00:49;;;;;;;22.23;3.03;;;;;;;;;;4391835;32;20478;-79
2021/01/29 12:03:20;;;;;;;21.75;3.35;;;;;;;;;;4344874;33;20662;-78
2021/01/29 12:05:58;;;;;;;17.67;2.70;;;;;;;;;;4391081;32;20142;-79
2021/01/29 12:08:41;;;;;;;12.63;2.72;;;;;;;;;;4392261;32;20130;-80
2021/01/29 12:11:28;;;;;;;21.20;2.67;;;;;;;;;;4391900;32;20127;-78
2021/01/29 12:13:59;;;;;;;16.75;3.28;;;;;;;;;;4391670;32;20563;-80
2021/01/29 12:16:27;;;;;;;18.83;2.83;;;;;;;;;;4378250;32;20151;-79
2021/01/29 12:18:54;;;;;;;19.45;2.78;;;;;;;;;;4391608;32;20150;-80
2021/01/29 12:21:41;;;;;;;15.77;2.83;;;;;;;;;;4377199;32;20185;-78
2021/01/29 12:24:31;;;;;;;22.73;3.17;;;;;;;;;;4377964;32;20177;-79
2021/01/29 12:27:06;;;;;;;14.20;2.58;;;;;;;;;;4391740;32;20193;-77
2021/01/29 12:29:41;;;;;;;18.55;2.47;;;;;;;;;;4403640;32;20282;-79
2021/01/29 12:32:26;;;;;;;27.35;2.95;;;;;;;;;;4392701;32;20191;-82
2021/01/29 12:35:14;;;;;;;19.52;2.90;;;;;;;;;;4407226;32;20138;-79
2021/01/29 12:37:59;;;;;;;20.17;3.00;;;;;;;;;;4394895;32;20198;-78
2021/01/29 12:40:34;;;;;;;19.35;3.00;;;;;;;;;;4407041;32;20152;-81
2021/01/29 12:43:34;;;;;;;20.95;3.25;;;;;;;;;;4406483;32;20133;-78
2021/01/29 12:46:27;;;;;;;16.98;3.33;;;;;;;;;;4329588;33;20348;-80
2021/01/29 12:49:11;;;;;;;21.50;2.35;;;;;;;;;;4376237;32;20186;-79
2021/01/29 12:51:56;;;;;;;17.83;4.28;;;;;;;;;;4390988;32;20165;-79
2021/01/29 12:54:59;;;;;;;22.77;3.62;;;;;;;;;;4391903;32;20119;-80
2021/01/29 13:00:40;;;;;;;18.90;2.92;;;;;;;;;;4359122;32;20173;-80
2021/01/29 13:03:17;;;;;;;19.48;3.17;;;;;;;;;;4372980;32;20434;-80
2021/01/29 13:06:19;;;;;;;20.15;3.47;;;;;;;;;;4391144;32;20148;-80
2021/01/29 13:09:14;;;;;;;23.33;3.47;;;;;;;;;;4376700;32;20200;-80
2021/01/29 13:12:06;;;;;;;;;;;;;;;;;;;;;
2021/01/29 13:15:18;;;;;;;17.77;2.90;;;;;;;;;;4387448;32;20650;-80
2021/01/29 13:17:38;;;;;;;20.37;3.35;;;;;;;;;;4384983;32;20591;-79
2021/01/29 13:20:14;;;;;;;23.35;3.22;;;;;;;;;;4390844;32;20158;-78
2021/01/29 13:22:43;;;;;;;20.62;3.50;;;;;;;;;;4391173;32;20170;-78
2021/01/29 13:25:08;;;;;;;14.80;2.28;;;;;;;;;;4376779;32;20173;-80
2021/01/29 13:27:38;;;;;;;17.77;3.22;;;;;;;;;;4390307;32;20189;-81
2021/01/29 13:30:24;;;;;;;16.20;2.62;;;;;;;;;;4387638;32;20166;-79
2021/01/29 13:32:56;;;;;;;20.50;2.83;;;;;;;;;;4382963;32;20205;-81
2021/01/29 13:36:12;;;;;;;15.50;3.17;;;;;;;;;;4407515;32;20169;-79
2021/01/29 13:38:56;;;;;;;15.27;3.10;;;;;;;;;;4331322;33;20233;-80
2021/01/29 13:41:27;;;;;;;21.62;3.72;;;;;;;;;;4331433;33;20214;-80
2021/01/29 13:44:11;;;;;;;;;;;;;;;;;;;;;
2021/01/29 13:50:04;;;;;;;16.62;3.03;;;;;;;;;;4337480;33;20159;-81
2021/01/29 13:52:53;;;;;;;15.57;2.95;;;;;;;;;;4352354;32;20158;-79
2021/01/29 13:56:34;;;;;;;21.17;3.40;;;;;;;;;;4420319;32;20154;-80
2021/01/29 14:01:59;;;;;;;29.77;3.47;;;;;;;;;;4383887;32;20212;-81
2021/01/29 14:04:27;;;;;;;16.00;2.92;;;;;;;;;;4376488;32;20185;-81
2021/01/29 14:06:55;;;;;;;19.98;3.37;;;;;;;;;;4420585;32;20256;-80
2021/01/29 14:09:23;;;;;;;15.40;2.87;;;;;;;;;;4406310;32;20234;-81
2021/01/29 14:15:43;;;;;;;;;;;;;;;;;;;;;
2021/01/29 14:18:23;;;;;;;16.37;2.37;;;;;;;;;;4361016;32;20163;-81
2021/01/29 14:21:19;;;;;;;;;;;;;;;;;;;;;
2021/01/29 14:24:10;;;;;;;17.85;3.55;;;;;;;;;;4392647;32;20149;-78
2021/01/29 14:26:43;;;;;;;14.87;2.85;;;;;;;;;;4419323;32;20165;-80
2021/01/29 14:29:51;;;;;;;;;;;;;;;;;;;;;
2021/01/29 14:32:25;;;;;;;15.98;2.78;;;;;;;;;;4404261;32;20188;-81
2021/01/29 14:35:23;;;;;;;23.38;3.25;;;;;;;;;;4390603;32;20653;-80
2021/01/29 14:38:04;;;;;;;21.23;3.12;;;;;;;;;;4349994;32;20162;-80
2021/01/29 14:41:21;;;;;;;;;;;;;;;;;;;;;
2021/01/29 14:44:05;;;;;;;19.15;2.83;;;;;;;;;;4327475;33;20182;-81
2021/01/29 14:46:31;;;;;;;15.25;2.62;;;;;;;;;;4328099;33;20197;-80
2021/01/29 14:49:15;;;;;;;17.23;3.03;;;;;;;;;;4389734;32;20153;-81
2021/01/29 14:52:00;;;;;;;19.58;3.12;;;;;;;;;;4405897;32;20315;-81
2021/01/29 14:58:30;;;;;;;19.87;3.20;;;;;;;;;;4327601;33;20189;-79
2021/01/29 15:01:01;;;;;;;14.68;2.83;;;;;;;;;;4405459;32;20174;-80
2021/01/29 15:03:58;;;;;;;21.92;3.22;;;;;;;;;;4391338;32;20311;-80
2021/01/29 15:06:54;;;;;;;18.73;3.10;;;;;;;;;;4387583;32;20166;-81
2021/01/29 15:09:27;;;;;;;16.48;3.00;;;;;;;;;;4406683;32;20173;-81
2021/01/29 15:11:56;;;;;;;19.05;2.85;;;;;;;;;;4398021;32;20609;-81
2021/01/29 15:14:40;;;;;;;23.55;3.30;;;;;;;;;;4405856;32;20165;-81
2021/01/29 15:17:09;;;;;;;17.55;3.08;;;;;;;;;;4420634;32;20130;-81
2021/01/29 15:19:50;;;;;;;;;;;;;;;;;;;;;
2021/01/29 15:22:24;;;;;;;17.00;3.20;;;;;;;;;;4420175;32;20138;-81
2021/01/29 15:25:10;;;;;;;16.60;2.80;;;;;;;;;;4406489;32;20176;-80
2021/01/29 15:27:39;;;;;;;20.70;3.22;;;;;;;;;;4405482;32;20165;-80
2021/01/29 15:30:09;;;;;;;18.52;3.17;;;;;;;;;;4375815;32;20237;-81
2021/01/29 15:32:40;;;;;;;16.27;3.05;;;;;;;;;;4376114;32;20190;-80
2021/01/29 15:35:06;;;;;;;18.62;3.50;;;;;;;;;;4375931;32;20142;-80
2021/01/29 15:37:53;;;;;;;22.08;3.30;;;;;;;;;;4375958;32;20220;-80
2021/01/29 15:40:18;;;;;;;13.43;2.55;;;;;;;;;;4375356;32;20166;-81
2021/01/29 15:42:44;;;;;;;18.93;3.00;;;;;;;;;;4375404;32;20660;-79
2021/01/29 15:45:09;;;;;;;16.60;3.03;;;;;;;;;;4375857;32;20316;-81
2021/01/29 15:48:00;;;;;;;17.02;3.08;;;;;;;;;;4375779;32;20153;-80
2021/01/29 15:50:56;;;;;;;21.23;3.28;;;;;;;;;;4375875;32;20204;-79
2021/01/29 15:53:40;;;;;;;15.77;3.28;;;;;;;;;;4375372;32;20151;-79
2021/01/29 15:56:16;;;;;;;18.60;3.00;;;;;;;;;;4377202;32;20614;-81
2021/01/29 15:58:41;;;;;;;15.38;3.00;;;;;;;;;;4377893;32;20166;-81
2021/01/29 16:01:27;;;;;;;15.23;2.87;;;;;;;;;;4378565;32;20208;-80
2021/01/29 16:03:58;;;;;;;19.52;3.10;;;;;;;;;;4378449;32;20270;-80
2021/01/29 16:06:38;;;;;;;20.15;3.33;;;;;;;;;;4392647;32;20575;-81
2021/01/29 16:09:08;;;;;;;13.27;2.55;;;;;;;;;;4398350;32;20161;-81
2021/01/29 16:11:33;;;;;;;16.17;2.80;;;;;;;;;;4407497;32;20161;-79
2021/01/29 16:14:05;;;;;;;18.05;2.92;;;;;;;;;;4388927;32;20200;-81
2021/01/29 16:16:31;;;;;;;15.13;2.60;;;;;;;;;;4393218;32;20276;-80
2021/01/29 16:18:58;;;;;;;13.50;2.90;;;;;;;;;;4392991;32;20150;-80
2021/01/29 16:21:28;;;;;;;14.68;2.20;;;;;;;;;;4406689;32;20131;-80
2021/01/29 16:23:54;;;;;;;13.75;2.53;;;;;;;;;;4407465;32;20153;-81
2021/01/29 16:26:25;;;;;;;14.73;2.72;;;;;;;;;;4392964;32;20254;-80
2021/01/29 16:29:00;;;;;;;14.82;2.55;;;;;;;;;;4395441;32;20165;-81
2021/01/29 16:31:30;;;;;;;12.82;2.35;;;;;;;;;;4418067;32;20164;-81
2021/01/29 16:34:04;;;;;;;13.27;2.15;;;;;;;;;;4407557;32;20518;-81
2021/01/29 16:36:32;;;;;;;11.10;2.67;;;;;;;;;;4407670;32;20218;-79
2021/01/29 16:39:07;;;;;;;17.98;2.85;;;;;;;;;;4407948;32;20154;-80
2021/01/29 16:41:33;;;;;;;16.33;2.60;;;;;;;;;;4408169;32;20154;-81
2021/01/29 16:44:17;;;;;;;16.60;3.12;;;;;;;;;;4413222;32;20161;-80
2021/01/29 16:46:42;;;;;;;13.45;2.30;;;;;;;;;;4377647;32;20192;-80